createdAt,value
2019-04-20T00:01:01.615Z,9.23
2019-04-20T00:03:39.417Z,8.47
2019-04-20T00:06:03.536Z,6.90
2019-04-20T00:08:37.533Z,7.77
2019-04-20T00:11:11.683Z,6.97
2019-04-20T00:13:48.925Z,7.70
2019-04-20T00:16:08.308Z,8.17
2019-04-20T00:18:43.049Z,7.13
2019-04-20T00:21:17.931Z,8.13
2019-04-20T00:23:50.254Z,8.20
2019-04-20T00:27:01.939Z,7.33
2019-04-20T00:29:21.313Z,7.60
2019-04-20T00:31:45.506Z,7.97
2019-04-20T00:34:13.853Z,7.47
2019-04-20T00:36:37.031Z,7.57
2019-04-20T00:39:11.125Z,7.50
2019-04-20T00:41:46.449Z,7.80
2019-04-20T00:44:17.148Z,7.90
2019-04-20T00:46:56.816Z,7.53
2019-04-20T00:49:30.588Z,8.47
2019-04-20T00:52:13.504Z,8.13
2019-04-20T00:54:18.051Z,7.77
2019-04-20T00:56:47.938Z,9.20
2019-04-20T00:59:32.077Z,8.27
2019-04-20T01:02:10.621Z,8.50
2019-04-20T01:04:44.968Z,7.93
2019-04-20T01:07:06.205Z,8.07
2019-04-20T01:09:33.038Z,8.80
2019-04-20T01:12:11.717Z,8.73
2019-04-20T01:14:43.464Z,9.47
2019-04-20T01:17:11.685Z,12.63
2019-04-20T01:19:37.356Z,10.97
2019-04-20T01:22:15.389Z,9.57
2019-04-20T01:24:41.957Z,11.20
2019-04-20T01:27:24.836Z,12.97
2019-04-20T01:29:46.802Z,12.03
2019-04-20T01:32:23.374Z,13.57
2019-04-20T01:34:56.780Z,14.30
2019-04-20T01:37:29.318Z,14.47
2019-04-20T01:39:52.105Z,15.03
2019-04-20T01:42:19.460Z,16.20
2019-04-20T01:44:52.417Z,15.83
2019-04-20T01:47:23.893Z,16.90
2019-04-20T01:50:04.758Z,16.17
2019-04-20T01:52:43.803Z,16.33
2019-04-20T01:55:24.788Z,16.30
2019-04-20T01:57:58.331Z,16.70
2019-04-20T02:00:23.327Z,16.13
2019-04-20T02:02:57.055Z,17.03
2019-04-20T02:05:29.080Z,17.77
2019-04-20T02:07:55.471Z,17.50
2019-04-20T02:10:33.335Z,18.37
2019-04-20T02:13:01.050Z,19.37
2019-04-20T02:15:37.532Z,18.70
2019-04-20T02:18:13.911Z,19.50
2019-04-20T02:20:48.594Z,19.47
2019-04-20T02:23:16.431Z,22.53
2019-04-20T02:25:35.386Z,21.73
2019-04-20T02:28:22.956Z,20.53
2019-04-20T02:31:14.835Z,21.20
2019-04-20T02:33:52.563Z,21.87
2019-04-20T02:36:27.591Z,23.93
2019-04-20T02:39:24.673Z,23.47
2019-04-20T02:41:36.042Z,23.03
2019-04-20T02:44:14.703Z,23.37
2019-04-20T02:46:40.894Z,22.70
2019-04-20T02:49:34.105Z,21.93
2019-04-20T02:51:41.175Z,21.53
2019-04-20T02:54:16.559Z,21.73
2019-04-20T02:56:49.756Z,19.47
2019-04-20T02:59:42.291Z,20.17
2019-04-20T03:01:30.738Z,19.33
2019-04-20T03:03:52.194Z,19.30
2019-04-20T03:06:30.195Z,16.93
2019-04-20T03:09:09.111Z,17.00
2019-04-20T03:11:52.949Z,17.97
2019-04-20T03:14:09.225Z,18.10
2019-04-20T03:16:41.236Z,18.13
2019-04-20T03:19:11.741Z,18.37
2019-04-20T03:21:52.872Z,18.77
2019-04-20T03:24:26.733Z,17.83
2019-04-20T03:26:55.645Z,17.57
2019-04-20T03:29:51.082Z,17.23
2019-04-20T03:32:57.903Z,18.30
2019-04-20T03:37:28.146Z,17.83
2019-04-20T03:39:48.819Z,17.63
2019-04-20T03:42:06.996Z,18.67
2019-04-20T03:44:39.024Z,20.23
2019-04-20T03:47:11.499Z,19.63
2019-04-20T03:50:00.245Z,19.30
2019-04-20T03:52:32.781Z,19.80
2019-04-20T03:55:19.860Z,17.93
2019-04-20T03:58:14.042Z,19.40
2019-04-20T04:00:59.815Z,17.97
2019-04-20T04:03:41.049Z,18.67
2019-04-20T04:06:02.896Z,19.37
2019-04-20T04:08:28.884Z,18.00
2019-04-20T04:11:12.319Z,20.07
2019-04-20T04:13:24.950Z,18.60
2019-04-20T04:16:01.194Z,17.97
2019-04-20T04:18:34.912Z,17.23
2019-04-20T04:21:04.800Z,17.57
2019-04-20T04:23:44.778Z,18.80
2019-04-20T04:26:16.070Z,18.77
2019-04-20T04:28:50.254Z,18.10
2019-04-20T04:31:23.307Z,18.30
2019-04-20T04:36:20.800Z,17.90
2019-04-20T04:39:17.778Z,17.47
2019-04-20T04:41:41.694Z,18.27
2019-04-20T04:43:58.848Z,18.17
2019-04-20T04:46:14.489Z,17.77
2019-04-20T04:48:47.535Z,16.27
2019-04-20T04:51:23.943Z,18.20
2019-04-20T04:53:56.230Z,15.77
2019-04-20T04:56:23.139Z,15.50
2019-04-20T04:58:51.649Z,14.90
2019-04-20T05:01:26.038Z,15.70
2019-04-20T05:04:23.053Z,16.53
2019-04-20T05:06:37.462Z,17.77
2019-04-20T05:09:00.821Z,15.90
2019-04-20T05:11:29.785Z,16.33
2019-04-20T05:14:05.213Z,14.53
2019-04-20T05:16:54.548Z,15.30
2019-04-20T05:19:24.755Z,16.47
2019-04-20T05:22:01.281Z,16.97
2019-04-20T05:24:26.946Z,17.30
2019-04-20T05:27:08.982Z,16.60
2019-04-20T05:29:24.676Z,17.97
2019-04-20T05:31:55.850Z,16.50
2019-04-20T05:34:45.122Z,16.60
2019-04-20T05:37:23.643Z,16.03
2019-04-20T05:39:45.778Z,14.17
2019-04-20T05:42:19.160Z,15.30
2019-04-20T05:44:50.037Z,13.37
2019-04-20T05:47:16.951Z,13.43
2019-04-20T05:49:46.852Z,12.63
2019-04-20T05:52:38.667Z,11.37
2019-04-20T05:54:57.322Z,11.13
2019-04-20T05:57:30.307Z,9.63
2019-04-20T06:00:01.837Z,10.70
2019-04-20T06:02:30.575Z,10.27
2019-04-20T06:05:05.391Z,8.80
2019-04-20T06:07:29.657Z,8.97
2019-04-20T06:10:06.223Z,8.60
2019-04-20T06:12:35.798Z,8.80
2019-04-20T06:15:04.593Z,7.70
2019-04-20T06:17:52.722Z,8.00
2019-04-20T06:20:36.718Z,7.20
2019-04-20T06:23:12.227Z,7.77
2019-04-20T06:25:53.807Z,7.50
2019-04-20T06:28:12.719Z,7.53
2019-04-20T06:30:43.361Z,7.40
2019-04-20T06:34:07.553Z,7.23
2019-04-20T06:36:35.371Z,8.07
2019-04-20T06:39:13.778Z,7.80
2019-04-20T06:41:45.586Z,7.20
2019-04-20T06:44:08.805Z,7.27
2019-04-20T06:46:36.241Z,7.77
2019-04-20T06:49:10.688Z,7.10
2019-04-20T06:51:45.455Z,7.40
2019-04-20T06:54:09.502Z,7.43
2019-04-20T06:56:54.450Z,7.33
2019-04-20T06:59:27.560Z,7.30
2019-04-20T07:07:02.312Z,7.37
2019-04-20T07:09:39.904Z,7.10
2019-04-20T07:12:01.373Z,7.80
2019-04-20T07:14:25.903Z,7.23
2019-04-20T07:17:17.954Z,7.13
2019-04-20T07:19:39.864Z,7.13
2019-04-20T07:22:29.242Z,7.53
2019-04-20T07:24:55.106Z,7.70
2019-04-20T07:27:19.335Z,7.47
2019-04-20T07:29:57.463Z,7.43
2019-04-20T07:32:21.098Z,6.77
2019-04-20T07:34:57.313Z,6.53
2019-04-20T07:38:04.610Z,6.63
2019-04-20T07:40:07.764Z,6.60
2019-04-20T07:42:43.682Z,7.20
2019-04-20T07:45:18.138Z,6.70
2019-04-20T07:50:09.022Z,6.83
2019-04-20T07:52:39.633Z,6.63
2019-04-20T07:55:33.650Z,6.43
2019-04-20T07:57:45.743Z,6.57
2019-04-20T08:00:26.296Z,5.60
2019-04-20T08:03:18.580Z,6.30
2019-04-20T08:05:36.352Z,6.67
2019-04-20T08:08:18.132Z,6.87
2019-04-20T08:10:42.108Z,6.53
2019-04-20T08:13:25.731Z,6.40
2019-04-20T08:15:57.025Z,7.50
2019-04-20T08:18:27.701Z,8.07
2019-04-20T08:20:58.433Z,6.40
2019-04-20T08:23:31.703Z,7.83
2019-04-20T08:25:49.876Z,6.07
2019-04-20T08:28:20.854Z,6.83
2019-04-20T08:31:06.077Z,6.97
2019-04-20T08:33:55.249Z,7.10
2019-04-20T08:36:23.160Z,6.00
2019-04-20T08:39:18.517Z,6.47
2019-04-20T08:41:17.025Z,6.53
2019-04-20T08:44:21.664Z,5.47
2019-04-20T08:46:26.585Z,6.07
2019-04-20T08:48:58.173Z,5.37
2019-04-20T08:51:31.724Z,5.67
2019-04-20T08:53:56.990Z,6.40
2019-04-20T08:56:28.586Z,5.20
2019-04-20T08:58:43.531Z,5.67
2019-04-20T09:01:18.502Z,5.37
2019-04-20T09:03:56.538Z,5.47
2019-04-20T09:06:34.774Z,5.50
2019-04-20T09:09:03.404Z,5.33
2019-04-20T09:11:41.523Z,5.30
2019-04-20T09:13:55.771Z,5.07
2019-04-20T09:16:31.735Z,5.70
2019-04-20T09:18:59.828Z,5.00
2019-04-20T09:21:35.527Z,5.67
2019-04-20T09:24:24.366Z,5.17
2019-04-20T09:26:47.925Z,4.83
2019-04-20T09:29:11.815Z,4.50
2019-04-20T09:31:46.997Z,4.47
2019-04-20T09:34:24.793Z,4.70
2019-04-20T09:37:16.545Z,4.53
2019-04-20T09:39:52.411Z,4.47
2019-04-20T09:42:05.239Z,3.80
2019-04-20T09:44:41.036Z,4.87
2019-04-20T09:47:08.616Z,3.97
2019-04-20T09:49:49.362Z,4.03
2019-04-20T09:52:26.157Z,3.57
2019-04-20T09:54:59.285Z,3.97
2019-04-20T09:57:35.041Z,3.70
2019-04-20T10:00:04.370Z,4.00
2019-04-20T10:02:23.333Z,4.23
2019-04-20T10:04:47.523Z,3.63
2019-04-20T10:07:21.394Z,3.37
2019-04-20T10:09:50.197Z,3.97
2019-04-20T10:12:21.724Z,3.73
2019-04-20T10:14:53.205Z,4.00
2019-04-20T10:17:23.606Z,3.70
2019-04-20T10:19:53.737Z,3.77
2019-04-20T10:22:24.595Z,3.70
2019-04-20T10:24:55.539Z,3.80
2019-04-20T10:27:26.485Z,4.40
2019-04-20T10:29:57.533Z,4.23
2019-04-20T10:32:34.221Z,4.43
2019-04-20T10:34:59.397Z,3.90
2019-04-20T10:37:31.538Z,4.30
2019-04-20T10:40:02.899Z,4.07
2019-04-20T10:42:34.191Z,3.93
2019-04-20T10:45:06.445Z,3.83
2019-04-20T10:47:37.094Z,4.03
2019-04-20T10:50:09.112Z,3.87
2019-04-20T10:52:38.968Z,4.37
2019-04-20T10:55:10.257Z,3.93
2019-04-20T10:57:41.655Z,4.10
2019-04-20T11:00:13.576Z,4.53
2019-04-20T11:02:45.849Z,4.13
2019-04-20T11:05:15.119Z,3.83
2019-04-20T11:07:46.269Z,3.70
2019-04-20T11:10:23.688Z,3.70
2019-04-20T11:12:48.394Z,4.07
2019-04-20T11:15:18.672Z,4.00
2019-04-20T11:17:49.115Z,3.57
2019-04-20T11:20:19.251Z,3.70
2019-04-20T11:22:58.029Z,4.00
2019-04-20T11:25:26.536Z,3.47
2019-04-20T11:27:58.678Z,3.30
2019-04-20T11:30:30.049Z,3.27
2019-04-20T11:33:02.229Z,3.83
2019-04-20T11:35:39.242Z,3.60
2019-04-20T11:38:10.724Z,3.70
2019-04-20T11:40:41.184Z,4.30
2019-04-20T11:43:15.618Z,3.33
2019-04-20T11:45:46.752Z,3.63
2019-04-20T11:48:16.984Z,3.80
2019-04-20T11:50:51.639Z,3.73
2019-04-20T11:53:21.624Z,3.80
2019-04-20T11:55:52.094Z,3.70
2019-04-20T11:58:22.196Z,3.80
2019-04-20T12:01:06.266Z,3.97
2019-04-20T12:03:39.016Z,3.83
2019-04-20T12:06:04.682Z,3.77
2019-04-20T12:08:32.669Z,4.50
2019-04-20T12:11:20.257Z,4.70
2019-04-20T12:13:36.568Z,4.90
2019-04-20T12:16:07.736Z,4.13
2019-04-20T12:18:37.982Z,4.57
2019-04-20T12:21:08.552Z,4.80
2019-04-20T12:23:38.632Z,4.80
2019-04-20T12:26:08.907Z,4.17
2019-04-20T12:28:40.075Z,4.13
2019-04-20T12:31:14.748Z,4.30
2019-04-20T12:33:42.248Z,4.17
2019-04-20T12:36:12.742Z,4.17
2019-04-20T12:38:43.314Z,4.00
2019-04-20T12:41:32.019Z,3.80
2019-04-20T12:43:50.209Z,4.30
2019-04-20T12:46:31.827Z,3.90
2019-04-20T12:49:07.633Z,3.77
2019-04-20T12:51:47.539Z,4.23
2019-04-20T12:54:09.013Z,3.80
2019-04-20T12:56:38.712Z,3.60
2019-04-20T12:59:09.648Z,3.70
2019-04-20T13:01:39.648Z,4.00
2019-04-20T13:04:09.676Z,3.30
2019-04-20T13:06:40.882Z,3.37
2019-04-20T13:09:12.766Z,3.27
2019-04-20T13:12:08.062Z,2.80
2019-04-20T13:14:44.472Z,2.60
2019-04-20T13:17:14.558Z,2.80
2019-04-20T13:19:45.047Z,2.87
2019-04-20T13:22:14.923Z,2.60
2019-04-20T13:24:45.210Z,2.97
2019-04-20T13:27:16.476Z,2.77
2019-04-20T13:29:49.161Z,2.57
2019-04-20T13:32:18.140Z,3.00
2019-04-20T13:34:47.948Z,2.40
2019-04-20T13:37:18.043Z,2.87
2019-04-20T13:39:49.000Z,2.30
2019-04-20T13:42:23.294Z,2.63
2019-04-20T13:44:50.796Z,2.90
2019-04-20T13:47:20.952Z,2.87
2019-04-20T13:49:51.374Z,2.60
2019-04-20T13:52:22.690Z,2.40
2019-04-20T13:54:53.918Z,2.87
2019-04-20T13:57:31.655Z,2.63
2019-04-20T14:00:04.207Z,2.60
2019-04-20T14:02:35.769Z,2.80
2019-04-20T14:05:06.811Z,2.73
2019-04-20T14:07:37.551Z,2.40
2019-04-20T14:10:09.214Z,1.70
2019-04-20T14:12:50.597Z,2.87
2019-04-20T14:15:11.508Z,2.43
2019-04-20T14:17:41.467Z,2.73
2019-04-20T14:20:15.290Z,2.30
2019-04-20T14:22:43.277Z,2.20
2019-04-20T14:25:13.288Z,2.87
2019-04-20T14:27:43.061Z,2.17
2019-04-20T14:30:13.112Z,2.00
2019-04-20T14:32:43.044Z,2.00
2019-04-20T14:35:12.947Z,1.10
2019-04-20T14:37:43.820Z,2.10
2019-04-20T14:40:14.565Z,1.80
2019-04-20T14:42:48.572Z,1.53
2019-04-20T14:45:18.575Z,2.03
2019-04-20T14:47:49.860Z,1.80
2019-04-20T14:50:21.443Z,2.30
2019-04-20T14:52:51.536Z,1.80
2019-04-20T14:55:22.623Z,1.83
2019-04-20T14:57:53.372Z,1.30
2019-04-20T15:00:58.548Z,2.50
2019-04-20T15:03:38.445Z,3.10
2019-04-20T15:06:09.685Z,2.10
2019-04-20T15:08:40.783Z,2.50
2019-04-20T15:11:10.616Z,3.00
2019-04-20T15:13:40.728Z,2.60
2019-04-20T15:16:10.956Z,3.03
2019-04-20T15:18:53.000Z,2.93
2019-04-20T15:21:24.698Z,2.57
2019-04-20T15:23:55.408Z,2.70
2019-04-20T15:26:26.488Z,2.90
2019-04-20T15:28:56.652Z,3.60
2019-04-20T15:31:28.086Z,2.70
2019-04-20T15:33:59.110Z,2.60
2019-04-20T15:36:29.329Z,2.60
2019-04-20T15:38:59.092Z,2.70
2019-04-20T15:41:29.388Z,2.70
2019-04-20T15:43:59.549Z,2.90
2019-04-20T15:46:32.666Z,2.83
2019-04-20T15:49:02.059Z,3.23
2019-04-20T15:51:32.046Z,3.00
2019-04-20T15:54:01.984Z,3.53
2019-04-20T15:56:33.202Z,3.87
2019-04-20T15:59:04.378Z,4.37
2019-04-20T16:01:36.568Z,3.70
2019-04-20T16:04:13.903Z,3.67
2019-04-20T16:06:39.539Z,3.60
2019-04-20T16:09:10.427Z,3.97
2019-04-20T16:11:41.253Z,4.03
2019-04-20T16:14:11.253Z,3.67
2019-04-20T16:16:42.377Z,3.67
2019-04-20T16:19:26.847Z,3.73
2019-04-20T16:21:43.882Z,4.00
2019-04-20T16:24:15.050Z,4.70
2019-04-20T16:26:47.429Z,4.40
2019-04-20T16:29:17.726Z,4.47
2019-04-20T16:31:49.918Z,4.30
2019-04-20T16:34:19.301Z,5.07
2019-04-20T16:36:51.822Z,4.73
2019-04-20T16:39:20.592Z,4.47
2019-04-20T16:41:50.784Z,4.57
2019-04-20T16:44:21.111Z,4.37
2019-04-20T16:46:52.148Z,5.23
2019-04-20T16:49:23.282Z,4.30
2019-04-20T16:51:54.714Z,4.90
2019-04-20T16:54:25.909Z,5.13
2019-04-20T16:56:56.911Z,5.30
2019-04-20T16:59:28.132Z,5.47
2019-04-20T17:01:58.327Z,5.97
2019-04-20T17:04:30.050Z,5.70
2019-04-20T17:07:16.663Z,5.60
2019-04-20T17:09:49.599Z,5.70
2019-04-20T17:12:19.874Z,5.47
2019-04-20T17:14:53.694Z,5.50
2019-04-20T17:17:23.578Z,5.20
2019-04-20T17:19:53.620Z,5.40
2019-04-20T17:22:23.541Z,6.23
2019-04-20T17:24:53.800Z,6.80
2019-04-20T17:27:28.917Z,6.20
2019-04-20T17:30:10.514Z,6.60
2019-04-20T17:32:41.255Z,6.23
2019-04-20T17:35:23.242Z,6.20
2019-04-20T17:37:45.330Z,6.77
2019-04-20T17:40:35.178Z,7.37
2019-04-20T17:42:56.650Z,7.73
2019-04-20T17:45:28.244Z,6.90
2019-04-20T17:48:07.353Z,8.00
2019-04-20T17:50:41.464Z,7.37
2019-04-20T17:53:07.471Z,7.97
2019-04-20T17:55:40.679Z,7.33
2019-04-20T17:58:06.836Z,7.87
2019-04-20T18:00:56.693Z,7.77
2019-04-20T18:03:57.553Z,7.10
2019-04-20T18:06:17.335Z,9.00
2019-04-20T18:08:50.608Z,10.20
2019-04-20T18:11:07.778Z,8.13
2019-04-20T18:13:36.024Z,7.70
2019-04-20T18:16:31.263Z,6.47
2019-04-20T18:19:01.933Z,6.90
2019-04-20T18:21:56.363Z,6.10
2019-04-20T18:24:59.663Z,6.90
2019-04-20T18:27:28.997Z,6.70
2019-04-20T18:29:58.735Z,8.23
2019-04-20T18:32:37.908Z,7.67
2019-04-20T18:35:22.398Z,9.23
2019-04-20T18:38:00.808Z,7.60
2019-04-20T18:40:35.155Z,8.10
2019-04-20T18:43:05.259Z,7.77
2019-04-20T18:45:46.784Z,7.70
2019-04-20T18:48:19.655Z,7.27
2019-04-20T18:50:40.370Z,7.20
2019-04-20T18:53:14.648Z,6.90
2019-04-20T18:55:43.734Z,8.30
2019-04-20T18:58:09.499Z,8.00
2019-04-20T19:00:44.470Z,6.70
2019-04-20T19:03:18.234Z,7.40
2019-04-20T19:05:42.493Z,7.20
2019-04-20T19:08:15.347Z,7.70
2019-04-20T19:10:52.263Z,9.47
2019-04-20T19:13:28.729Z,8.67
2019-04-20T19:16:22.771Z,10.20
2019-04-20T19:19:00.807Z,9.53
2019-04-20T19:21:21.377Z,10.70
2019-04-20T19:24:01.462Z,9.10
2019-04-20T19:26:23.868Z,9.57
2019-04-20T19:28:57.865Z,8.57
2019-04-20T19:31:42.535Z,9.30
2019-04-20T19:34:15.355Z,7.57
2019-04-20T19:36:36.952Z,7.43
2019-04-20T19:39:19.941Z,8.10
2019-04-20T19:41:43.942Z,6.87
2019-04-20T19:44:17.174Z,7.03
2019-04-20T19:46:53.597Z,7.20
2019-04-20T19:49:19.281Z,7.03
2019-04-20T19:52:12.199Z,7.77
2019-04-20T19:54:30.138Z,7.67
2019-04-20T19:57:00.494Z,7.63
2019-04-20T19:59:23.360Z,9.33
2019-04-20T20:01:45.432Z,8.53
2019-04-20T20:04:15.688Z,8.33
2019-04-20T20:06:51.831Z,8.73
2019-04-20T20:09:18.204Z,9.10
2019-04-20T20:11:49.934Z,9.47
2019-04-20T20:14:30.592Z,9.00
2019-04-20T20:17:12.926Z,8.47
2019-04-20T20:19:38.086Z,8.97
2019-04-20T20:22:09.042Z,8.73
2019-04-20T20:24:27.395Z,10.03
2019-04-20T20:27:02.560Z,9.57
2019-04-20T20:29:37.559Z,8.70
2019-04-20T20:32:10.154Z,8.93
2019-04-20T20:34:38.268Z,9.10
2019-04-20T20:37:09.009Z,9.83
2019-04-20T20:39:38.656Z,9.90
2019-04-20T20:42:19.003Z,10.03
2019-04-20T20:44:45.537Z,9.93
2019-04-20T20:47:32.267Z,9.27
2019-04-20T20:50:08.775Z,10.17
2019-04-20T20:52:29.032Z,9.60
2019-04-20T20:54:53.933Z,10.33
2019-04-20T20:57:21.915Z,9.80
2019-04-20T20:59:55.277Z,9.67
2019-04-20T21:02:24.328Z,9.57
2019-04-20T21:04:51.323Z,9.57
2019-04-20T21:07:22.575Z,8.97
2019-04-20T21:09:52.515Z,8.97
2019-04-20T21:12:23.571Z,9.90
2019-04-20T21:14:55.089Z,10.77
2019-04-20T21:17:34.462Z,9.90
2019-04-20T21:20:12.637Z,9.90
2019-04-20T21:22:51.715Z,9.53
2019-04-20T21:25:14.498Z,9.67
2019-04-20T21:27:44.718Z,9.57
2019-04-20T21:30:18.485Z,9.43
2019-04-20T21:32:49.114Z,9.60
2019-04-20T21:35:17.862Z,9.63
2019-04-20T21:37:54.449Z,8.93
2019-04-20T21:40:27.886Z,10.67
2019-04-20T21:42:58.156Z,8.93
2019-04-20T21:45:28.687Z,8.63
2019-04-20T21:47:54.598Z,9.80
2019-04-20T21:50:42.714Z,9.90
2019-04-20T21:53:04.776Z,8.77
2019-04-20T21:55:28.000Z,9.77
2019-04-20T21:58:00.474Z,8.27
2019-04-20T22:00:50.461Z,8.67
2019-04-20T22:03:20.309Z,8.43
2019-04-20T22:05:54.427Z,8.70
2019-04-20T22:08:24.592Z,9.00
2019-04-20T22:10:55.827Z,8.30
2019-04-20T22:13:32.589Z,8.77
2019-04-20T22:16:03.558Z,8.40
2019-04-20T22:18:45.495Z,7.93
2019-04-20T22:21:13.268Z,9.17
2019-04-20T22:23:52.786Z,7.87
2019-04-20T22:26:17.388Z,8.10
2019-04-20T22:28:38.260Z,7.47
2019-04-20T22:31:09.715Z,7.50
2019-04-20T22:33:44.959Z,7.17
2019-04-20T22:36:16.366Z,8.27
2019-04-20T22:38:56.673Z,8.27
2019-04-20T22:41:27.707Z,7.77
2019-04-20T22:43:56.791Z,7.73
2019-04-20T22:46:31.828Z,7.80
2019-04-20T22:49:17.165Z,7.33
2019-04-20T22:51:44.034Z,7.87
2019-04-20T22:54:17.331Z,8.83
2019-04-20T22:56:48.298Z,8.30
2019-04-20T22:59:12.783Z,7.97
2019-04-20T23:01:44.410Z,8.97
2019-04-20T23:04:08.629Z,8.90
2019-04-20T23:06:43.976Z,8.83
2019-04-20T23:09:13.289Z,8.93
2019-04-20T23:11:42.394Z,8.27
2019-04-20T23:14:12.200Z,8.27
2019-04-20T23:16:47.381Z,8.43
2019-04-20T23:19:14.212Z,9.00
2019-04-20T23:21:50.245Z,9.43
2019-04-20T23:24:17.087Z,9.23
2019-04-20T23:26:48.636Z,9.23
2019-04-20T23:29:22.670Z,9.57
2019-04-20T23:31:55.748Z,10.40
2019-04-20T23:34:25.518Z,9.83
2019-04-20T23:36:54.661Z,9.83
2019-04-20T23:39:34.167Z,9.70
2019-04-20T23:42:00.372Z,9.43
2019-04-20T23:44:45.771Z,9.60
2019-04-20T23:47:22.009Z,9.37
2019-04-20T23:50:11.225Z,10.73
2019-04-20T23:53:02.470Z,10.33
2019-04-20T23:55:13.450Z,10.40
2019-04-20T23:57:45.997Z,9.87
